Terminal Aerodrome Forecast
Issued by NWS Tuscon, AZ

Home | Current Version | Previous Version | Text Only | Print | Product List | Glossary On
Versions: 1 2 3 4 5 6 7 8 9 10 11 12 13 14
000
FTUS45 KTWC 291120
TAFDUG
TAF
KDUG 291120Z 2912/3012 VRB04KT P6SM FEW120 FEW250
     FM291800 15006KT P6SM SCT070
     FM292100 20008KT P6SM VCTS SCT060CB SCT100
     FM300100 35006KT P6SM VCSH SCT060 BKN100
     FM300400 12006KT P6SM BKN100 BKN200=

USA.gov is the U.S. government's official web portal to all federal, state and local government web resources and services.